createdAt,value
2023-02-15T00:01:42.712Z,12.82
2023-02-15T00:04:10.853Z,13.00
2023-02-15T00:06:37.541Z,13.75
2023-02-15T00:09:04.930Z,13.32
2023-02-15T00:11:40.821Z,11.90
2023-02-15T00:14:11.146Z,12.32
2023-02-15T00:16:39.725Z,12.40
2023-02-15T00:19:06.830Z,12.80
2023-02-15T00:21:34.819Z,12.60
2023-02-15T00:24:02.522Z,13.07
2023-02-15T00:26:29.421Z,12.68
2023-02-15T00:28:57.224Z,12.95
2023-02-15T00:31:23.919Z,12.30
2023-02-15T00:33:50.633Z,13.77
2023-02-15T00:36:17.148Z,13.27
2023-02-15T00:38:44.043Z,12.90
2023-02-15T00:41:11.223Z,13.73
2023-02-15T00:43:38.261Z,12.27
2023-02-15T00:46:06.094Z,12.93
2023-02-15T00:48:33.341Z,12.93
2023-02-15T00:51:01.015Z,13.57
2023-02-15T00:53:28.345Z,13.88
2023-02-15T00:55:55.087Z,14.27
2023-02-15T00:58:22.589Z,12.35
2023-02-15T01:00:49.922Z,13.07
2023-02-15T01:03:18.786Z,13.88
2023-02-15T01:08:11.754Z,13.52
2023-02-15T01:10:38.977Z,13.32
2023-02-15T01:13:05.675Z,13.40
2023-02-15T01:15:36.717Z,13.15
2023-02-15T01:18:05.004Z,13.27
2023-02-15T01:20:35.736Z,13.27
2023-02-15T01:23:02.232Z,14.32
2023-02-15T01:25:28.867Z,14.95
2023-02-15T01:27:55.347Z,13.25
2023-02-15T01:30:22.234Z,13.93
2023-02-15T01:32:48.722Z,14.13
2023-02-15T01:35:15.214Z,13.68
2023-02-15T01:37:41.712Z,13.43
2023-02-15T01:40:13.165Z,15.00
2023-02-15T01:42:39.850Z,14.02
2023-02-15T01:45:23.108Z,13.65
2023-02-15T01:47:57.267Z,13.55
2023-02-15T01:50:35.513Z,13.50
2023-02-15T01:53:30.478Z,13.20
2023-02-15T01:56:03.467Z,14.32
2023-02-15T01:58:31.330Z,13.95
2023-02-15T02:01:01.372Z,13.27
2023-02-15T02:03:59.246Z,13.25
2023-02-15T02:06:26.911Z,12.35
2023-02-15T02:08:55.587Z,13.38
2023-02-15T02:11:22.609Z,13.40
2023-02-15T02:13:51.563Z,13.82
2023-02-15T02:16:43.991Z,13.93
2023-02-15T02:19:47.034Z,13.38
2023-02-15T02:22:19.928Z,13.90
2023-02-15T02:24:55.738Z,13.23
2023-02-15T02:27:42.534Z,14.07
2023-02-15T02:30:18.008Z,13.60
2023-02-15T02:32:53.281Z,14.23
2023-02-15T02:35:31.089Z,15.40
2023-02-15T02:38:16.349Z,13.52
2023-02-15T02:41:18.283Z,13.68
2023-02-15T02:43:56.178Z,15.20
2023-02-15T02:46:31.410Z,14.75
2023-02-15T02:51:25.414Z,14.02
2023-02-15T02:53:56.525Z,13.15
2023-02-15T02:56:31.261Z,13.90
2023-02-15T02:59:09.754Z,13.07
2023-02-15T03:01:49.473Z,13.10
2023-02-15T03:04:21.357Z,13.23
2023-02-15T03:07:03.047Z,14.55
2023-02-15T03:09:43.967Z,14.13
2023-02-15T03:12:17.640Z,13.65
2023-02-15T03:14:51.975Z,13.85
2023-02-15T03:17:22.817Z,14.65
2023-02-15T03:19:53.357Z,14.60
2023-02-15T03:22:29.061Z,14.63
2023-02-15T03:25:12.042Z,15.27
2023-02-15T03:27:46.565Z,14.32
2023-02-15T03:30:16.540Z,13.13
2023-02-15T03:32:45.984Z,14.43
2023-02-15T03:35:12.838Z,13.13
2023-02-15T03:37:52.213Z,13.65
2023-02-15T03:40:49.812Z,13.82
2023-02-15T03:43:25.701Z,14.23
2023-02-15T03:45:57.443Z,13.45
2023-02-15T03:48:28.616Z,13.68
2023-02-15T03:51:18.016Z,14.35
2023-02-15T03:53:47.412Z,14.35
2023-02-15T03:56:13.869Z,14.70
2023-02-15T03:58:59.156Z,13.90
2023-02-15T04:01:58.320Z,13.88
2023-02-15T04:04:32.941Z,14.75
2023-02-15T04:06:59.861Z,14.13
2023-02-15T04:09:45.143Z,14.68
2023-02-15T04:12:11.833Z,13.90
2023-02-15T04:14:57.722Z,14.32
2023-02-15T04:17:24.183Z,14.57
2023-02-15T04:20:09.996Z,15.18
2023-02-15T04:22:55.297Z,14.10
2023-02-15T04:25:21.863Z,13.38
2023-02-15T04:27:52.258Z,14.18
2023-02-15T04:30:20.982Z,15.55
2023-02-15T04:32:47.993Z,15.15
2023-02-15T04:35:15.562Z,14.40
2023-02-15T04:37:42.909Z,14.38
2023-02-15T04:40:13.075Z,15.27
2023-02-15T04:42:39.871Z,14.27
2023-02-15T04:45:06.789Z,14.43
2023-02-15T04:47:33.507Z,13.57
2023-02-15T04:50:00.263Z,14.15
2023-02-15T04:52:27.216Z,15.23
2023-02-15T04:54:53.671Z,14.95
2023-02-15T04:57:20.167Z,14.82
2023-02-15T04:59:46.665Z,14.73
2023-02-15T05:02:13.340Z,14.05
2023-02-15T05:04:40.002Z,15.27
2023-02-15T05:07:06.612Z,15.05
2023-02-15T05:09:33.012Z,14.50
2023-02-15T05:11:59.411Z,14.18
2023-02-15T05:14:26.170Z,15.00
2023-02-15T05:16:53.040Z,13.32
2023-02-15T05:19:19.744Z,15.05
2023-02-15T05:21:46.240Z,13.63
2023-02-15T05:24:31.725Z,15.40
2023-02-15T05:27:17.197Z,15.38
2023-02-15T05:29:43.844Z,14.30
2023-02-15T05:32:11.727Z,15.63
2023-02-15T05:34:38.586Z,16.27
2023-02-15T05:37:05.291Z,16.65
2023-02-15T05:39:33.348Z,15.95
2023-02-15T05:42:02.854Z,16.42
2023-02-15T05:44:29.378Z,16.08
2023-02-15T05:46:55.890Z,15.52
2023-02-15T05:49:22.417Z,15.73
2023-02-15T05:51:49.476Z,16.40
2023-02-15T05:54:16.246Z,16.40
2023-02-15T05:56:42.955Z,17.90
2023-02-15T05:59:09.694Z,16.23
2023-02-15T06:01:36.504Z,15.48
2023-02-15T06:04:03.271Z,16.10
2023-02-15T06:06:29.804Z,15.98
2023-02-15T06:08:56.580Z,15.27
2023-02-15T06:11:23.086Z,14.70
2023-02-15T06:13:49.602Z,15.75
2023-02-15T06:16:16.900Z,16.70
2023-02-15T06:18:44.003Z,15.57
2023-02-15T06:21:10.766Z,15.48
2023-02-15T06:23:37.482Z,14.30
2023-02-15T06:26:04.405Z,15.40
2023-02-15T06:28:31.234Z,15.48
2023-02-15T06:30:58.203Z,15.25
2023-02-15T06:33:25.113Z,16.05
2023-02-15T06:35:53.204Z,16.38
2023-02-15T06:38:19.844Z,15.07
2023-02-15T06:40:46.764Z,16.20
2023-02-15T06:43:13.320Z,14.68
2023-02-15T06:45:39.951Z,15.30
2023-02-15T06:48:08.510Z,14.82
2023-02-15T06:50:35.973Z,15.57
2023-02-15T06:53:03.138Z,15.75
2023-02-15T06:55:29.859Z,15.10
2023-02-15T06:57:56.578Z,14.93
2023-02-15T07:00:24.147Z,14.65
2023-02-15T07:03:00.268Z,14.68
2023-02-15T07:05:31.711Z,14.75
2023-02-15T07:07:59.737Z,14.98
2023-02-15T07:10:26.955Z,16.23
2023-02-15T07:12:54.826Z,14.15
2023-02-15T07:15:22.796Z,15.57
2023-02-15T07:17:50.082Z,14.88
2023-02-15T07:20:22.797Z,16.15
2023-02-15T07:22:50.175Z,14.65
2023-02-15T07:25:17.921Z,15.57
2023-02-15T07:27:45.876Z,14.65
2023-02-15T07:30:15.143Z,14.88
2023-02-15T07:33:04.642Z,14.13
2023-02-15T07:35:31.747Z,13.95
2023-02-15T07:37:59.748Z,15.05
2023-02-15T07:40:26.242Z,14.65
2023-02-15T07:42:57.174Z,12.55
2023-02-15T07:45:23.818Z,14.48
2023-02-15T07:47:50.828Z,13.27
2023-02-15T07:50:17.582Z,13.27
2023-02-15T07:52:44.441Z,14.15
2023-02-15T07:55:13.685Z,13.90
2023-02-15T07:57:45.142Z,12.80
2023-02-15T08:00:14.172Z,14.02
2023-02-15T08:02:41.144Z,14.38
2023-02-15T08:05:08.730Z,13.40
2023-02-15T08:07:35.682Z,12.85
2023-02-15T08:10:02.104Z,13.95
2023-02-15T08:12:28.840Z,14.13
2023-02-15T08:14:55.390Z,13.60
2023-02-15T08:17:21.887Z,14.07
2023-02-15T08:19:48.620Z,13.23
2023-02-15T08:22:15.422Z,13.88
2023-02-15T08:24:42.459Z,12.80
2023-02-15T08:27:11.041Z,12.60
2023-02-15T08:29:39.025Z,12.85
2023-02-15T08:32:08.735Z,13.05
2023-02-15T08:34:39.107Z,12.13
2023-02-15T08:37:07.256Z,13.23
2023-02-15T08:39:34.180Z,12.73
2023-02-15T08:42:00.881Z,12.85
2023-02-15T08:44:27.491Z,13.65
2023-02-15T08:46:54.240Z,12.35
2023-02-15T08:49:22.718Z,13.32
2023-02-15T08:51:49.867Z,12.35
2023-02-15T08:54:21.875Z,13.07
2023-02-15T08:56:48.734Z,12.63
2023-02-15T08:59:20.593Z,12.35
2023-02-15T09:01:49.450Z,11.60
2023-02-15T09:06:48.614Z,11.85
2023-02-15T09:09:16.404Z,12.70
2023-02-15T09:11:44.827Z,11.93
2023-02-15T09:14:15.214Z,11.90
2023-02-15T09:16:46.025Z,12.82
2023-02-15T09:19:12.816Z,11.52
2023-02-15T09:21:40.078Z,11.77
2023-02-15T09:24:11.675Z,12.38
2023-02-15T09:26:42.174Z,12.77
2023-02-15T09:29:10.498Z,12.30
2023-02-15T09:31:42.602Z,13.30
2023-02-15T09:34:09.128Z,12.23
2023-02-15T09:36:37.997Z,12.60
2023-02-15T09:39:13.702Z,12.05
2023-02-15T09:42:11.921Z,11.95
2023-02-15T09:45:05.214Z,12.20
2023-02-15T09:47:41.246Z,12.32
2023-02-15T09:50:31.163Z,11.73
2023-02-15T09:53:06.735Z,12.45
2023-02-15T09:56:04.839Z,12.77
2023-02-15T09:58:31.466Z,13.20
2023-02-15T10:01:07.412Z,13.23
2023-02-15T10:04:09.370Z,12.13
2023-02-15T10:06:51.224Z,12.55
2023-02-15T10:09:36.605Z,12.95
2023-02-15T10:12:31.069Z,12.02
2023-02-15T10:15:13.266Z,13.05
2023-02-15T10:17:48.777Z,11.70
2023-02-15T10:20:35.529Z,11.80
2023-02-15T10:23:13.178Z,12.80
2023-02-15T10:25:51.990Z,12.02
2023-02-15T10:28:21.540Z,12.23
2023-02-15T10:30:54.418Z,12.95
2023-02-15T10:33:43.139Z,12.40
2023-02-15T10:36:29.136Z,11.93
2023-02-15T10:39:22.211Z,11.77
2023-02-15T10:42:14.595Z,11.85
2023-02-15T10:45:14.149Z,11.35
2023-02-15T10:48:17.467Z,11.15
2023-02-15T10:51:00.820Z,11.98
2023-02-15T10:53:33.678Z,11.15
2023-02-15T10:56:11.457Z,11.57
2023-02-15T10:58:53.180Z,11.45
2023-02-15T11:01:39.198Z,12.50
2023-02-15T11:04:18.651Z,11.25
2023-02-15T11:06:53.182Z,11.70
2023-02-15T11:09:23.290Z,10.93
2023-02-15T11:11:53.786Z,11.77
2023-02-15T11:14:38.949Z,11.15
2023-02-15T11:17:13.872Z,10.82
2023-02-15T11:19:50.475Z,9.95
2023-02-15T11:22:17.978Z,11.10
2023-02-15T11:24:46.699Z,11.75
2023-02-15T11:27:15.991Z,10.57
2023-02-15T11:29:55.431Z,11.27
2023-02-15T11:32:29.987Z,10.23
2023-02-15T11:35:05.818Z,10.35
2023-02-15T11:38:07.141Z,11.18
2023-02-15T11:43:09.487Z,10.73
2023-02-15T11:45:46.930Z,11.10
2023-02-15T11:48:16.091Z,9.75
2023-02-15T11:50:44.604Z,10.45
2023-02-15T11:53:17.200Z,10.02
2023-02-15T11:55:49.051Z,10.32
2023-02-15T11:58:31.952Z,9.55
2023-02-15T12:01:24.569Z,10.27
2023-02-15T12:03:58.211Z,10.20
2023-02-15T12:06:28.529Z,10.02
2023-02-15T12:09:02.297Z,10.48
2023-02-15T12:11:41.595Z,10.27
2023-02-15T12:14:09.889Z,9.98
2023-02-15T12:16:55.613Z,10.73
2023-02-15T12:19:32.113Z,9.07
2023-02-15T12:22:01.782Z,9.98
2023-02-15T12:24:33.539Z,10.75
2023-02-15T12:27:07.218Z,10.38
2023-02-15T12:29:42.070Z,9.63
2023-02-15T12:32:38.274Z,9.90
2023-02-15T12:35:18.174Z,9.60
2023-02-15T12:38:14.146Z,9.48
2023-02-15T12:40:41.068Z,10.10
2023-02-15T12:43:26.999Z,9.32
2023-02-15T12:45:53.688Z,10.27
2023-02-15T12:48:21.560Z,10.02
2023-02-15T12:50:55.348Z,10.25
2023-02-15T12:53:44.956Z,10.00
2023-02-15T12:56:12.276Z,9.55
2023-02-15T12:58:41.022Z,10.15
2023-02-15T13:01:18.025Z,9.68
2023-02-15T13:04:05.840Z,9.88
2023-02-15T13:06:36.276Z,9.45
2023-02-15T13:09:27.101Z,9.75
2023-02-15T13:11:54.011Z,9.57
2023-02-15T13:14:32.246Z,10.15
2023-02-15T13:17:02.232Z,10.48
2023-02-15T13:19:38.209Z,9.88
2023-02-15T13:22:15.409Z,10.35
2023-02-15T13:25:14.119Z,10.70
2023-02-15T13:27:44.370Z,10.75
2023-02-15T13:30:27.474Z,9.35
2023-02-15T13:33:01.947Z,9.80
2023-02-15T13:35:39.028Z,9.75
2023-02-15T13:38:41.708Z,8.65
2023-02-15T13:41:17.789Z,9.73
2023-02-15T13:44:01.236Z,9.77
2023-02-15T13:46:53.709Z,9.55
2023-02-15T13:49:31.909Z,9.15
2023-02-15T13:52:21.210Z,9.93
2023-02-15T13:55:13.834Z,10.05
2023-02-15T13:57:50.064Z,9.60
2023-02-15T14:00:26.821Z,9.00
2023-02-15T14:03:11.381Z,9.68
2023-02-15T14:06:11.880Z,9.40
2023-02-15T14:09:02.839Z,10.15
2023-02-15T14:11:49.598Z,9.00
2023-02-15T14:14:23.714Z,9.75
2023-02-15T14:17:07.406Z,9.63
2023-02-15T14:19:50.617Z,8.50
2023-02-15T14:22:42.542Z,9.48
2023-02-15T14:25:24.928Z,9.75
2023-02-15T14:28:06.760Z,9.38
2023-02-15T14:30:38.032Z,10.23
2023-02-15T14:33:26.451Z,9.93
2023-02-15T14:35:53.575Z,9.55
2023-02-15T14:38:38.776Z,9.18
2023-02-15T14:41:18.443Z,9.80
2023-02-15T14:43:57.951Z,8.77
2023-02-15T14:47:02.353Z,9.57
2023-02-15T14:49:38.087Z,9.60
2023-02-15T14:52:13.516Z,9.15
2023-02-15T14:54:39.923Z,9.73
2023-02-15T14:57:09.312Z,8.90
2023-02-15T14:59:59.373Z,9.02
2023-02-15T15:02:49.926Z,9.65
2023-02-15T15:05:52.629Z,8.52
2023-02-15T15:08:39.772Z,9.38
2023-02-15T15:11:42.872Z,9.77
2023-02-15T15:14:12.506Z,10.07
2023-02-15T15:16:39.084Z,8.90
2023-02-15T15:19:11.846Z,9.30
2023-02-15T15:21:47.786Z,10.18
2023-02-15T15:24:39.178Z,10.48
2023-02-15T15:27:46.775Z,11.88
2023-02-15T15:30:19.367Z,11.65
2023-02-15T15:33:01.969Z,10.57
2023-02-15T15:35:47.475Z,8.85
2023-02-15T15:38:32.087Z,9.32
2023-02-15T15:41:23.527Z,8.38
2023-02-15T15:44:00.253Z,9.00
2023-02-15T15:46:41.957Z,8.95
2023-02-15T15:49:16.369Z,9.52
2023-02-15T15:51:44.527Z,9.45
2023-02-15T15:54:18.765Z,9.80
2023-02-15T15:56:52.494Z,8.95
2023-02-15T15:59:26.072Z,9.60
2023-02-15T16:01:53.090Z,8.75
2023-02-15T16:04:28.959Z,9.50
2023-02-15T16:06:55.452Z,9.13
2023-02-15T16:09:26.126Z,10.05
2023-02-15T16:12:03.444Z,9.38
2023-02-15T16:14:35.610Z,9.38
2023-02-15T16:17:05.856Z,9.77
2023-02-15T16:19:43.855Z,8.55
2023-02-15T16:22:19.041Z,9.05
2023-02-15T16:27:36.915Z,10.02
2023-02-15T16:30:29.391Z,9.95
2023-02-15T16:33:09.484Z,11.02
2023-02-15T16:35:39.446Z,11.07
2023-02-15T16:38:06.593Z,12.05
2023-02-15T16:40:49.453Z,10.75
2023-02-15T16:43:22.098Z,12.30
2023-02-15T16:45:50.840Z,11.50
2023-02-15T16:50:53.032Z,10.55
2023-02-15T16:53:24.943Z,11.50
2023-02-15T16:56:00.836Z,11.00
2023-02-15T16:58:31.886Z,10.15
2023-02-15T17:01:01.049Z,10.32
2023-02-15T17:03:28.636Z,10.25
2023-02-15T17:06:05.146Z,9.48
2023-02-15T17:08:42.574Z,9.75
2023-02-15T17:11:19.611Z,10.55
2023-02-15T17:14:05.188Z,10.18
2023-02-15T17:16:34.355Z,9.93
2023-02-15T17:19:11.083Z,9.32
2023-02-15T17:21:42.913Z,10.15
2023-02-15T17:24:18.447Z,10.98
2023-02-15T17:26:51.386Z,10.88
2023-02-15T17:29:38.607Z,10.73
2023-02-15T17:32:07.468Z,10.90
2023-02-15T17:37:50.460Z,10.80
2023-02-15T17:40:29.560Z,10.50
2023-02-15T17:42:56.924Z,11.65
2023-02-15T17:45:27.261Z,11.43
2023-02-15T17:47:54.046Z,10.65
2023-02-15T17:50:27.232Z,10.60
2023-02-15T17:52:55.969Z,10.82
2023-02-15T17:55:35.799Z,9.98
2023-02-15T17:58:05.504Z,10.57
2023-02-15T18:00:53.771Z,10.88
2023-02-15T18:03:39.567Z,10.23
2023-02-15T18:06:25.089Z,9.75
2023-02-15T18:09:12.598Z,10.65
2023-02-15T18:11:39.565Z,11.18
2023-02-15T18:14:09.095Z,10.65
2023-02-15T18:16:38.962Z,11.77
2023-02-15T18:19:06.259Z,10.85
2023-02-15T18:21:34.126Z,9.73
2023-02-15T18:24:00.654Z,10.43
2023-02-15T18:26:28.799Z,10.43
2023-02-15T18:28:56.545Z,10.50
2023-02-15T18:31:24.223Z,10.48
2023-02-15T18:33:55.192Z,9.95
2023-02-15T18:36:40.424Z,11.02
2023-02-15T18:39:23.689Z,9.85
2023-02-15T18:41:51.900Z,10.20
2023-02-15T18:44:18.417Z,10.32
2023-02-15T18:46:44.935Z,11.07
2023-02-15T18:49:12.806Z,10.98
2023-02-15T18:51:40.908Z,9.50
2023-02-15T18:54:23.906Z,10.95
2023-02-15T18:56:56.835Z,11.10
2023-02-15T18:59:27.098Z,10.30
2023-02-15T19:01:54.489Z,10.65
2023-02-15T19:04:22.008Z,9.88
2023-02-15T19:06:50.133Z,10.85
2023-02-15T19:09:24.401Z,10.73
2023-02-15T19:11:53.749Z,10.63
2023-02-15T19:14:27.740Z,10.75
2023-02-15T19:16:56.644Z,10.23
2023-02-15T19:19:23.942Z,11.48
2023-02-15T19:21:51.775Z,10.82
2023-02-15T19:24:24.975Z,11.95
2023-02-15T19:26:52.310Z,11.00
2023-02-15T19:29:27.327Z,10.98
2023-02-15T19:31:54.227Z,11.10
2023-02-15T19:34:20.904Z,11.13
2023-02-15T19:36:50.168Z,11.48
2023-02-15T19:39:32.441Z,10.50
2023-02-15T19:42:00.516Z,10.82
2023-02-15T19:44:28.993Z,10.50
2023-02-15T19:46:55.863Z,11.65
2023-02-15T19:49:22.595Z,10.85
2023-02-15T19:51:49.277Z,11.80
2023-02-15T19:54:31.037Z,11.10
2023-02-15T19:56:57.774Z,10.82
2023-02-15T19:59:28.002Z,11.07
2023-02-15T20:01:54.764Z,11.20
2023-02-15T20:04:22.076Z,11.35
2023-02-15T20:06:50.828Z,11.18
2023-02-15T20:09:24.178Z,11.32
2023-02-15T20:11:53.640Z,10.88
2023-02-15T20:14:21.155Z,12.68
2023-02-15T20:16:49.038Z,11.95
2023-02-15T20:19:15.892Z,12.07
2023-02-15T20:21:45.353Z,12.13
2023-02-15T20:24:17.528Z,12.20
2023-02-15T20:26:45.178Z,12.50
2023-02-15T20:29:16.178Z,11.73
2023-02-15T20:31:43.304Z,12.30
2023-02-15T20:34:10.568Z,12.50
2023-02-15T20:36:38.839Z,10.80
2023-02-15T20:39:17.601Z,11.10
2023-02-15T20:41:48.208Z,11.82
2023-02-15T20:44:19.139Z,12.10
2023-02-15T20:46:45.664Z,11.45
2023-02-15T20:49:12.505Z,12.60
2023-02-15T20:51:40.834Z,12.50
2023-02-15T20:54:19.088Z,11.60
2023-02-15T20:56:46.681Z,12.25
2023-02-15T20:59:22.145Z,12.02
2023-02-15T21:01:49.720Z,11.52
2023-02-15T21:04:22.975Z,12.30
2023-02-15T21:06:49.477Z,11.57
2023-02-15T21:09:17.046Z,12.07
2023-02-15T21:11:44.387Z,12.02
2023-02-15T21:14:25.883Z,10.88
2023-02-15T21:16:53.031Z,11.23
2023-02-15T21:19:22.725Z,11.55
2023-02-15T21:21:52.208Z,11.65
2023-02-15T21:24:27.692Z,12.25
2023-02-15T21:26:55.873Z,12.57
2023-02-15T21:29:25.843Z,11.63
2023-02-15T21:31:52.775Z,12.10
2023-02-15T21:34:19.511Z,11.20
2023-02-15T21:36:48.506Z,12.80
2023-02-15T21:39:23.551Z,13.40
2023-02-15T21:42:13.150Z,11.38
2023-02-15T21:44:58.201Z,12.98
2023-02-15T21:47:48.742Z,11.90
2023-02-15T21:50:39.660Z,11.70
2023-02-15T21:53:09.979Z,12.65
2023-02-15T21:55:36.527Z,12.70
2023-02-15T21:58:03.159Z,12.68
2023-02-15T22:00:30.923Z,11.55
2023-02-15T22:02:59.564Z,12.23
2023-02-15T22:05:34.392Z,12.35
2023-02-15T22:08:01.256Z,12.15
2023-02-15T22:10:31.412Z,13.20
2023-02-15T22:13:00.845Z,12.98
2023-02-15T22:15:31.963Z,12.43
2023-02-15T22:17:58.420Z,11.93
2023-02-15T22:20:25.171Z,11.88
2023-02-15T22:22:52.760Z,12.75
2023-02-15T22:25:22.416Z,12.35
2023-02-15T22:27:50.894Z,12.60
2023-02-15T22:30:20.179Z,13.20
2023-02-15T22:32:47.109Z,12.23
2023-02-15T22:35:24.243Z,11.93
2023-02-15T22:37:50.762Z,11.32
2023-02-15T22:40:18.964Z,12.77
2023-02-15T22:42:47.722Z,12.57
2023-02-15T22:45:18.717Z,12.88
2023-02-15T22:47:46.285Z,13.25
2023-02-15T22:50:27.816Z,13.00
2023-02-15T22:52:55.141Z,13.30
2023-02-15T22:55:24.491Z,12.68
2023-02-15T22:57:57.237Z,13.38
2023-02-15T23:00:39.380Z,12.45
2023-02-15T23:03:26.927Z,12.80
2023-02-15T23:05:53.921Z,12.85
2023-02-15T23:08:21.171Z,12.73
2023-02-15T23:10:53.073Z,13.02
2023-02-15T23:13:26.307Z,12.63
2023-02-15T23:15:58.863Z,13.55
2023-02-15T23:18:34.822Z,13.32
2023-02-15T23:21:10.486Z,13.98
2023-02-15T23:23:42.345Z,13.43
2023-02-15T23:26:27.679Z,13.88
2023-02-15T23:28:56.069Z,12.80
2023-02-15T23:31:28.897Z,13.77
2023-02-15T23:33:56.294Z,13.48
2023-02-15T23:36:31.231Z,13.60
2023-02-15T23:39:19.891Z,13.25
2023-02-15T23:41:46.380Z,13.68
2023-02-15T23:44:14.003Z,14.80
2023-02-15T23:46:43.517Z,14.30
2023-02-15T23:49:15.287Z,12.70
2023-02-15T23:51:43.967Z,14.55
2023-02-15T23:54:11.100Z,13.02
2023-02-15T23:56:38.408Z,14.70
2023-02-15T23:59:05.865Z,13.05
